KDNN/DNN METAR and TAF weather

Enter ICAO airport designator
Station Type Date Time Source
KDNN METAR 2021/09/24 06:15 UTC NOAA

KDNN 240615Z AUTO 00000KT 10SM CLR 11/10 A3012 RMK AO2


Station Type Date Time Source
KDNN Decoded METAR 2021/09/24 06:15 UTC NOAA

Dalton, Dalton Municipal Airport, GA, United States (KDNN) 34-43-18N 084-52-09W
Sep 24, 2021 - 02:15 AM EDT / 2021.09.24 0615 UTC
Wind: Calm:0
Visibility: 10 mile(s):0
Sky conditions: clear
Temperature: 51 F (11 C)
Dew Point: 50 F (10 C)
Relative Humidity: 93%
Pressure (altimeter): 30.12 in. Hg (1019 hPa)
ob: KDNN 240615Z AUTO 00000KT 10SM CLR 11/10 A3012 RMK AO2
cycle: 6

Station Type Date Time Source
KDNN TAF UTC NOAA

Error!

Example: see airport list